sensor_id;sensor_type;location;lat;lon;timestamp;P1;durP1;ratioP1;P2;durP2;ratioP2
45408;SDS011;31162;51.076;3.784;2023-04-01T00:02:19;17.33;;;9.40;;
45408;SDS011;31162;51.076;3.784;2023-04-01T00:04:44;19.30;;;9.98;;
45408;SDS011;31162;51.076;3.784;2023-04-01T00:07:10;15.90;;;9.88;;
45408;SDS011;31162;51.076;3.784;2023-04-01T00:09:36;18.25;;;10.95;;
45408;SDS011;31162;51.076;3.784;2023-04-01T00:12:02;19.13;;;10.18;;
45408;SDS011;31162;51.076;3.784;2023-04-01T00:14:28;21.15;;;10.50;;
45408;SDS011;31162;51.076;3.784;2023-04-01T00:16:54;23.52;;;10.65;;
45408;SDS011;31162;51.076;3.784;2023-04-01T00:19:20;18.83;;;10.15;;
45408;SDS011;31162;51.076;3.784;2023-04-01T00:21:46;18.45;;;10.43;;
45408;SDS011;31162;51.076;3.784;2023-04-01T00:24:13;20.40;;;10.32;;
45408;SDS011;31162;51.076;3.784;2023-04-01T00:26:38;15.23;;;10.60;;
45408;SDS011;31162;51.076;3.784;2023-04-01T00:29:05;16.63;;;10.50;;
45408;SDS011;31162;51.076;3.784;2023-04-01T00:31:31;17.02;;;10.02;;
45408;SDS011;31162;51.076;3.784;2023-04-01T00:33:57;19.80;;;9.25;;
45408;SDS011;31162;51.076;3.784;2023-04-01T00:36:23;19.73;;;9.95;;
45408;SDS011;31162;51.076;3.784;2023-04-01T00:38:50;16.52;;;8.70;;
45408;SDS011;31162;51.076;3.784;2023-04-01T00:41:16;17.02;;;7.97;;
45408;SDS011;31162;51.076;3.784;2023-04-01T00:43:44;16.90;;;6.93;;
45408;SDS011;31162;51.076;3.784;2023-04-01T00:46:11;11.52;;;6.78;;
45408;SDS011;31162;51.076;3.784;2023-04-01T00:48:38;15.07;;;5.95;;
45408;SDS011;31162;51.076;3.784;2023-04-01T00:51:14;10.93;;;5.43;;
45408;SDS011;31162;51.076;3.784;2023-04-01T00:53:46;13.07;;;5.47;;
45408;SDS011;31162;51.076;3.784;2023-04-01T00:56:25;15.45;;;5.05;;
45408;SDS011;31162;51.076;3.784;2023-04-01T00:59:00;11.98;;;5.30;;
45408;SDS011;31162;51.076;3.784;2023-04-01T01:01:30;9.93;;;4.80;;
45408;SDS011;31162;51.076;3.784;2023-04-01T01:03:57;11.20;;;4.82;;
45408;SDS011;31162;51.076;3.784;2023-04-01T01:06:34;8.00;;;4.60;;
45408;SDS011;31162;51.076;3.784;2023-04-01T01:11:39;12.82;;;5.20;;
45408;SDS011;31162;51.076;3.784;2023-04-01T01:14:28;10.13;;;5.15;;
45408;SDS011;31162;51.076;3.784;2023-04-01T01:36:49;13.90;;;5.30;;
45408;SDS011;31162;51.076;3.784;2023-04-01T01:41:46;15.52;;;6.60;;
45408;SDS011;31162;51.076;3.784;2023-04-01T01:44:14;14.95;;;6.47;;
45408;SDS011;31162;51.076;3.784;2023-04-01T01:46:42;14.18;;;5.85;;
45408;SDS011;31162;51.076;3.784;2023-04-01T01:49:09;16.50;;;6.13;;
45408;SDS011;31162;51.076;3.784;2023-04-01T01:51:37;17.92;;;6.32;;
45408;SDS011;31162;51.076;3.784;2023-04-01T01:54:04;15.98;;;5.88;;
45408;SDS011;31162;51.076;3.784;2023-04-01T01:56:29;12.57;;;6.20;;
45408;SDS011;31162;51.076;3.784;2023-04-01T01:59:01;15.90;;;6.13;;
45408;SDS011;31162;51.076;3.784;2023-04-01T02:01:30;10.18;;;5.60;;
45408;SDS011;31162;51.076;3.784;2023-04-01T02:03:59;12.43;;;5.60;;
45408;SDS011;31162;51.076;3.784;2023-04-01T02:06:26;17.13;;;5.80;;
45408;SDS011;31162;51.076;3.784;2023-04-01T02:09:03;10.85;;;5.10;;
45408;SDS011;31162;51.076;3.784;2023-04-01T02:14:28;9.27;;;4.55;;
45408;SDS011;31162;51.076;3.784;2023-04-01T02:17:22;10.00;;;4.13;;
45408;SDS011;31162;51.076;3.784;2023-04-01T02:22:21;10.02;;;4.72;;
45408;SDS011;31162;51.076;3.784;2023-04-01T02:24:50;10.20;;;4.55;;
45408;SDS011;31162;51.076;3.784;2023-04-01T02:27:19;9.48;;;4.80;;
45408;SDS011;31162;51.076;3.784;2023-04-01T02:29:45;7.72;;;4.97;;
45408;SDS011;31162;51.076;3.784;2023-04-01T02:32:11;11.70;;;5.43;;
45408;SDS011;31162;51.076;3.784;2023-04-01T02:34:39;14.02;;;6.15;;
45408;SDS011;31162;51.076;3.784;2023-04-01T02:37:05;14.65;;;6.32;;
45408;SDS011;31162;51.076;3.784;2023-04-01T02:39:31;15.43;;;6.22;;
45408;SDS011;31162;51.076;3.784;2023-04-01T02:41:57;18.63;;;7.35;;
45408;SDS011;31162;51.076;3.784;2023-04-01T02:44:22;12.13;;;6.82;;
45408;SDS011;31162;51.076;3.784;2023-04-01T02:46:48;14.02;;;7.40;;
45408;SDS011;31162;51.076;3.784;2023-04-01T02:49:14;20.30;;;7.95;;
45408;SDS011;31162;51.076;3.784;2023-04-01T02:51:39;13.60;;;7.05;;
45408;SDS011;31162;51.076;3.784;2023-04-01T02:54:05;17.70;;;7.63;;
45408;SDS011;31162;51.076;3.784;2023-04-01T02:56:31;19.30;;;7.25;;
45408;SDS011;31162;51.076;3.784;2023-04-01T02:58:56;16.77;;;7.68;;
45408;SDS011;31162;51.076;3.784;2023-04-01T03:01:22;13.70;;;6.65;;
45408;SDS011;31162;51.076;3.784;2023-04-01T03:03:48;14.93;;;7.28;;
45408;SDS011;31162;51.076;3.784;2023-04-01T03:06:14;17.73;;;7.32;;
45408;SDS011;31162;51.076;3.784;2023-04-01T03:08:41;18.48;;;7.28;;
45408;SDS011;31162;51.076;3.784;2023-04-01T03:11:08;14.20;;;7.68;;
45408;SDS011;31162;51.076;3.784;2023-04-01T03:13:35;11.30;;;6.63;;
45408;SDS011;31162;51.076;3.784;2023-04-01T03:16:01;15.77;;;7.63;;
45408;SDS011;31162;51.076;3.784;2023-04-01T03:18:27;19.60;;;7.82;;
45408;SDS011;31162;51.076;3.784;2023-04-01T03:20:52;12.05;;;6.72;;
45408;SDS011;31162;51.076;3.784;2023-04-01T03:23:18;12.60;;;7.70;;
45408;SDS011;31162;51.076;3.784;2023-04-01T03:25:46;12.13;;;7.38;;
45408;SDS011;31162;51.076;3.784;2023-04-01T03:28:12;18.83;;;11.65;;
45408;SDS011;31162;51.076;3.784;2023-04-01T03:30:38;12.73;;;7.40;;
45408;SDS011;31162;51.076;3.784;2023-04-01T03:33:04;12.38;;;6.20;;
45408;SDS011;31162;51.076;3.784;2023-04-01T03:35:30;7.78;;;5.40;;
45408;SDS011;31162;51.076;3.784;2023-04-01T03:37:56;11.55;;;5.43;;
45408;SDS011;31162;51.076;3.784;2023-04-01T03:40:22;8.90;;;5.88;;
45408;SDS011;31162;51.076;3.784;2023-04-01T03:42:47;5.53;;;4.30;;
45408;SDS011;31162;51.076;3.784;2023-04-01T03:45:13;8.57;;;4.80;;
45408;SDS011;31162;51.076;3.784;2023-04-01T03:47:39;7.63;;;4.55;;
45408;SDS011;31162;51.076;3.784;2023-04-01T03:50:05;6.32;;;4.65;;
45408;SDS011;31162;51.076;3.784;2023-04-01T03:52:32;25.65;;;22.63;;
45408;SDS011;31162;51.076;3.784;2023-04-01T03:54:58;8.13;;;5.13;;
45408;SDS011;31162;51.076;3.784;2023-04-01T03:57:24;6.82;;;4.93;;
45408;SDS011;31162;51.076;3.784;2023-04-01T03:59:49;8.30;;;4.78;;
45408;SDS011;31162;51.076;3.784;2023-04-01T04:02:15;7.50;;;5.20;;
45408;SDS011;31162;51.076;3.784;2023-04-01T04:04:41;7.57;;;4.97;;
45408;SDS011;31162;51.076;3.784;2023-04-01T04:07:07;10.18;;;6.00;;
45408;SDS011;31162;51.076;3.784;2023-04-01T04:09:33;6.63;;;5.32;;
45408;SDS011;31162;51.076;3.784;2023-04-01T04:11:59;6.93;;;5.03;;
45408;SDS011;31162;51.076;3.784;2023-04-01T04:14:25;7.10;;;4.95;;
45408;SDS011;31162;51.076;3.784;2023-04-01T04:16:51;6.47;;;5.28;;
45408;SDS011;31162;51.076;3.784;2023-04-01T04:19:16;5.78;;;4.43;;
45408;SDS011;31162;51.076;3.784;2023-04-01T04:21:42;6.22;;;4.53;;
45408;SDS011;31162;51.076;3.784;2023-04-01T04:24:08;14.00;;;12.38;;
45408;SDS011;31162;51.076;3.784;2023-04-01T04:26:35;7.38;;;5.03;;
45408;SDS011;31162;51.076;3.784;2023-04-01T04:29:01;8.07;;;5.68;;
45408;SDS011;31162;51.076;3.784;2023-04-01T04:31:27;9.98;;;5.57;;
45408;SDS011;31162;51.076;3.784;2023-04-01T04:33:53;6.88;;;5.72;;
45408;SDS011;31162;51.076;3.784;2023-04-01T04:36:19;7.57;;;5.60;;
45408;SDS011;31162;51.076;3.784;2023-04-01T04:38:45;8.80;;;5.70;;
45408;SDS011;31162;51.076;3.784;2023-04-01T04:41:12;11.10;;;6.25;;
45408;SDS011;31162;51.076;3.784;2023-04-01T04:43:39;8.18;;;5.65;;
45408;SDS011;31162;51.076;3.784;2023-04-01T04:46:08;6.50;;;4.93;;
45408;SDS011;31162;51.076;3.784;2023-04-01T04:48:35;5.90;;;4.40;;
45408;SDS011;31162;51.076;3.784;2023-04-01T04:51:01;6.35;;;4.95;;
45408;SDS011;31162;51.076;3.784;2023-04-01T04:53:28;6.75;;;5.43;;
45408;SDS011;31162;51.076;3.784;2023-04-01T04:55:53;6.90;;;5.00;;
45408;SDS011;31162;51.076;3.784;2023-04-01T04:58:19;6.63;;;5.13;;
45408;SDS011;31162;51.076;3.784;2023-04-01T05:00:45;7.65;;;5.05;;
45408;SDS011;31162;51.076;3.784;2023-04-01T05:03:11;9.10;;;5.18;;
45408;SDS011;31162;51.076;3.784;2023-04-01T05:05:38;10.88;;;6.65;;
45408;SDS011;31162;51.076;3.784;2023-04-01T05:08:04;10.18;;;6.22;;
45408;SDS011;31162;51.076;3.784;2023-04-01T05:10:30;8.88;;;6.25;;
45408;SDS011;31162;51.076;3.784;2023-04-01T05:12:56;9.95;;;7.38;;
45408;SDS011;31162;51.076;3.784;2023-04-01T05:15:23;12.25;;;6.80;;
45408;SDS011;31162;51.076;3.784;2023-04-01T05:17:49;11.07;;;6.43;;
45408;SDS011;31162;51.076;3.784;2023-04-01T05:20:15;8.20;;;6.78;;
45408;SDS011;31162;51.076;3.784;2023-04-01T05:22:42;8.43;;;5.32;;
45408;SDS011;31162;51.076;3.784;2023-04-01T05:25:08;8.32;;;6.28;;
45408;SDS011;31162;51.076;3.784;2023-04-01T05:27:33;10.02;;;6.38;;
45408;SDS011;31162;51.076;3.784;2023-04-01T05:29:59;10.27;;;6.50;;
45408;SDS011;31162;51.076;3.784;2023-04-01T05:32:25;8.70;;;6.43;;
45408;SDS011;31162;51.076;3.784;2023-04-01T05:34:51;8.52;;;5.60;;
45408;SDS011;31162;51.076;3.784;2023-04-01T05:37:18;8.48;;;5.40;;
45408;SDS011;31162;51.076;3.784;2023-04-01T05:39:44;5.93;;;4.90;;
45408;SDS011;31162;51.076;3.784;2023-04-01T05:42:09;7.05;;;5.22;;
45408;SDS011;31162;51.076;3.784;2023-04-01T05:44:35;6.75;;;4.57;;
45408;SDS011;31162;51.076;3.784;2023-04-01T05:47:01;6.18;;;4.63;;
45408;SDS011;31162;51.076;3.784;2023-04-01T05:49:28;6.93;;;4.13;;
45408;SDS011;31162;51.076;3.784;2023-04-01T05:51:54;5.90;;;3.90;;
45408;SDS011;31162;51.076;3.784;2023-04-01T05:54:21;4.85;;;3.75;;
45408;SDS011;31162;51.076;3.784;2023-04-01T05:56:46;5.88;;;4.20;;
45408;SDS011;31162;51.076;3.784;2023-04-01T05:59:12;4.28;;;3.58;;
45408;SDS011;31162;51.076;3.784;2023-04-01T06:01:38;6.95;;;4.10;;
45408;SDS011;31162;51.076;3.784;2023-04-01T06:04:04;5.60;;;3.78;;
45408;SDS011;31162;51.076;3.784;2023-04-01T06:06:30;4.57;;;3.50;;
45408;SDS011;31162;51.076;3.784;2023-04-01T06:08:58;3.90;;;3.33;;
45408;SDS011;31162;51.076;3.784;2023-04-01T06:19:18;6.38;;;3.85;;
45408;SDS011;31162;51.076;3.784;2023-04-01T06:22:46;4.63;;;3.97;;
45408;SDS011;31162;51.076;3.784;2023-04-01T06:43:40;9.23;;;6.20;;
45408;SDS011;31162;51.076;3.784;2023-04-01T06:54:36;6.78;;;3.50;;
45408;SDS011;31162;51.076;3.784;2023-04-01T06:57:26;4.93;;;3.40;;
45408;SDS011;31162;51.076;3.784;2023-04-01T06:59:57;6.18;;;2.97;;
45408;SDS011;31162;51.076;3.784;2023-04-01T07:02:37;3.35;;;2.90;;
45408;SDS011;31162;51.076;3.784;2023-04-01T07:05:08;3.85;;;2.65;;
45408;SDS011;31162;51.076;3.784;2023-04-01T07:07:41;2.83;;;2.53;;
45408;SDS011;31162;51.076;3.784;2023-04-01T07:10:21;3.38;;;2.35;;
45408;SDS011;31162;51.076;3.784;2023-04-01T07:12:54;3.17;;;2.20;;
45408;SDS011;31162;51.076;3.784;2023-04-01T07:15:56;1.85;;;1.65;;
45408;SDS011;31162;51.076;3.784;2023-04-01T07:18:45;2.20;;;2.00;;
45408;SDS011;31162;51.076;3.784;2023-04-01T07:21:26;3.22;;;2.30;;
45408;SDS011;31162;51.076;3.784;2023-04-01T07:24:01;2.25;;;2.05;;
45408;SDS011;31162;51.076;3.784;2023-04-01T07:26:30;3.05;;;2.05;;
45408;SDS011;31162;51.076;3.784;2023-04-01T07:28:56;4.38;;;1.80;;
45408;SDS011;31162;51.076;3.784;2023-04-01T07:34:17;4.10;;;3.08;;
45408;SDS011;31162;51.076;3.784;2023-04-01T07:36:46;3.92;;;2.08;;
45408;SDS011;31162;51.076;3.784;2023-04-01T07:48:09;4.38;;;3.97;;
45408;SDS011;31162;51.076;3.784;2023-04-01T07:51:23;3.42;;;2.10;;
45408;SDS011;31162;51.076;3.784;2023-04-01T07:53:45;2.40;;;2.20;;
45408;SDS011;31162;51.076;3.784;2023-04-01T07:56:21;4.60;;;2.13;;
45408;SDS011;31162;51.076;3.784;2023-04-01T08:06:49;3.53;;;3.20;;
45408;SDS011;31162;51.076;3.784;2023-04-01T08:14:52;4.72;;;2.90;;
45408;SDS011;31162;51.076;3.784;2023-04-01T08:20:30;4.95;;;3.45;;
45408;SDS011;31162;51.076;3.784;2023-04-01T08:25:38;5.85;;;4.00;;
45408;SDS011;31162;51.076;3.784;2023-04-01T08:28:44;4.97;;;4.05;;
45408;SDS011;31162;51.076;3.784;2023-04-01T08:31:18;6.03;;;3.92;;
45408;SDS011;31162;51.076;3.784;2023-04-01T08:33:58;4.63;;;3.40;;
45408;SDS011;31162;51.076;3.784;2023-04-01T08:36:29;3.83;;;3.20;;
45408;SDS011;31162;51.076;3.784;2023-04-01T09:14:51;3.65;;;1.70;;
45408;SDS011;31162;51.076;3.784;2023-04-01T09:17:45;4.10;;;3.03;;
45408;SDS011;31162;51.076;3.784;2023-04-01T09:23:33;4.05;;;1.42;;
45408;SDS011;31162;51.076;3.784;2023-04-01T09:32:09;2.75;;;1.40;;
45408;SDS011;31162;51.076;3.784;2023-04-01T09:34:52;2.85;;;1.15;;
45408;SDS011;31162;51.076;3.784;2023-04-01T09:42:43;3.42;;;1.55;;
45408;SDS011;31162;51.076;3.784;2023-04-01T09:56:40;2.70;;;1.10;;
45408;SDS011;31162;51.076;3.784;2023-04-01T10:17:19;1.45;;;0.80;;
45408;SDS011;31162;51.076;3.784;2023-04-01T10:27:45;1.42;;;0.80;;
45408;SDS011;31162;51.076;3.784;2023-04-01T10:31:36;0.70;;;0.70;;
45408;SDS011;31162;51.076;3.784;2023-04-01T10:36:54;1.38;;;0.73;;
45408;SDS011;31162;51.076;3.784;2023-04-01T10:53:34;0.80;;;0.80;;
45408;SDS011;31162;51.076;3.784;2023-04-01T11:23:08;2.60;;;1.17;;
45408;SDS011;31162;51.076;3.784;2023-04-01T11:28:33;2.33;;;1.60;;
45408;SDS011;31162;51.076;3.784;2023-04-01T11:31:20;2.50;;;1.70;;
45408;SDS011;31162;51.076;3.784;2023-04-01T11:40:47;3.00;;;2.05;;
45408;SDS011;31162;51.076;3.784;2023-04-01T11:43:01;2.65;;;1.85;;
45408;SDS011;31162;51.076;3.784;2023-04-01T11:45:41;4.78;;;1.95;;
45408;SDS011;31162;51.076;3.784;2023-04-01T11:48:25;2.53;;;2.17;;
45408;SDS011;31162;51.076;3.784;2023-04-01T12:16:59;3.40;;;3.10;;
45408;SDS011;31162;51.076;3.784;2023-04-01T12:19:48;3.88;;;2.10;;
45408;SDS011;31162;51.076;3.784;2023-04-01T12:22:59;1.85;;;1.70;;
45408;SDS011;31162;51.076;3.784;2023-04-01T12:28:39;4.05;;;2.53;;
45408;SDS011;31162;51.076;3.784;2023-04-01T12:31:18;3.75;;;2.63;;
45408;SDS011;31162;51.076;3.784;2023-04-01T12:41:32;2.53;;;2.30;;
45408;SDS011;31162;51.076;3.784;2023-04-01T12:44:29;3.90;;;3.50;;
45408;SDS011;31162;51.076;3.784;2023-04-01T12:55:41;2.08;;;1.20;;
45408;SDS011;31162;51.076;3.784;2023-04-01T13:09:46;3.03;;;2.72;;
45408;SDS011;31162;51.076;3.784;2023-04-01T13:12:36;18.33;;;13.93;;
45408;SDS011;31162;51.076;3.784;2023-04-01T13:15:37;3.85;;;2.88;;
45408;SDS011;31162;51.076;3.784;2023-04-01T13:18:24;2.58;;;1.48;;
45408;SDS011;31162;51.076;3.784;2023-04-01T13:21:10;3.42;;;2.75;;
45408;SDS011;31162;51.076;3.784;2023-04-01T13:29:14;3.72;;;3.35;;
45408;SDS011;31162;51.076;3.784;2023-04-01T13:42:49;2.92;;;1.65;;
45408;SDS011;31162;51.076;3.784;2023-04-01T13:45:42;3.35;;;2.08;;
45408;SDS011;31162;51.076;3.784;2023-04-01T13:48:36;5.00;;;2.00;;
45408;SDS011;31162;51.076;3.784;2023-04-01T13:53:59;4.15;;;2.75;;
45408;SDS011;31162;51.076;3.784;2023-04-01T14:08:02;1.60;;;1.15;;
45408;SDS011;31162;51.076;3.784;2023-04-01T14:10:42;1.92;;;1.10;;
45408;SDS011;31162;51.076;3.784;2023-04-01T14:16:41;2.53;;;1.15;;
45408;SDS011;31162;51.076;3.784;2023-04-01T14:28:07;2.17;;;0.95;;
45408;SDS011;31162;51.076;3.784;2023-04-01T14:39:10;2.40;;;1.15;;
45408;SDS011;31162;51.076;3.784;2023-04-01T14:44:33;1.88;;;0.90;;
45408;SDS011;31162;51.076;3.784;2023-04-01T14:47:34;2.25;;;0.90;;
45408;SDS011;31162;51.076;3.784;2023-04-01T14:52:51;2.95;;;0.90;;
45408;SDS011;31162;51.076;3.784;2023-04-01T14:55:34;1.48;;;0.90;;
45408;SDS011;31162;51.076;3.784;2023-04-01T14:58:13;0.65;;;0.60;;
45408;SDS011;31162;51.076;3.784;2023-04-01T15:03:22;2.42;;;1.23;;
45408;SDS011;31162;51.076;3.784;2023-04-01T15:06:20;2.33;;;1.10;;
45408;SDS011;31162;51.076;3.784;2023-04-01T15:11:50;2.35;;;1.60;;
45408;SDS011;31162;51.076;3.784;2023-04-01T15:31:45;3.58;;;2.90;;
45408;SDS011;31162;51.076;3.784;2023-04-01T15:42:26;3.17;;;1.75;;
45408;SDS011;31162;51.076;3.784;2023-04-01T15:47:59;3.20;;;2.90;;
45408;SDS011;31162;51.076;3.784;2023-04-01T15:50:54;3.15;;;2.15;;
45408;SDS011;31162;51.076;3.784;2023-04-01T16:24:38;4.75;;;2.95;;
45408;SDS011;31162;51.076;3.784;2023-04-01T16:27:13;3.35;;;2.20;;
45408;SDS011;31162;51.076;3.784;2023-04-01T16:41:07;3.42;;;2.33;;
45408;SDS011;31162;51.076;3.784;2023-04-01T16:43:43;3.37;;;2.83;;
45408;SDS011;31162;51.076;3.784;2023-04-01T16:51:46;6.03;;;3.38;;
45408;SDS011;31162;51.076;3.784;2023-04-01T16:59:57;7.30;;;4.00;;
45408;SDS011;31162;51.076;3.784;2023-04-01T17:02:43;5.10;;;3.95;;
45408;SDS011;31162;51.076;3.784;2023-04-01T17:05:16;4.50;;;3.67;;
45408;SDS011;31162;51.076;3.784;2023-04-01T17:16:19;3.28;;;2.40;;
45408;SDS011;31162;51.076;3.784;2023-04-01T17:19:06;4.25;;;2.85;;
45408;SDS011;31162;51.076;3.784;2023-04-01T17:36:24;5.22;;;2.90;;
45408;SDS011;31162;51.076;3.784;2023-04-01T17:39:31;5.43;;;3.30;;
45408;SDS011;31162;51.076;3.784;2023-04-01T17:42:19;5.32;;;3.65;;
45408;SDS011;31162;51.076;3.784;2023-04-01T17:47:39;8.02;;;5.03;;
45408;SDS011;31162;51.076;3.784;2023-04-01T17:50:21;9.10;;;5.18;;
45408;SDS011;31162;51.076;3.784;2023-04-01T17:52:51;8.48;;;5.30;;
45408;SDS011;31162;51.076;3.784;2023-04-01T17:55:46;9.70;;;5.05;;
45408;SDS011;31162;51.076;3.784;2023-04-01T17:58:17;10.43;;;5.90;;
45408;SDS011;31162;51.076;3.784;2023-04-01T18:06:30;9.32;;;5.90;;
45408;SDS011;31162;51.076;3.784;2023-04-01T18:22:53;11.68;;;8.10;;
45408;SDS011;31162;51.076;3.784;2023-04-01T18:25:39;13.43;;;8.70;;
45408;SDS011;31162;51.076;3.784;2023-04-01T18:41:38;55.70;;;39.55;;
45408;SDS011;31162;51.076;3.784;2023-04-01T18:47:18;24.17;;;12.40;;
45408;SDS011;31162;51.076;3.784;2023-04-01T18:52:37;22.88;;;12.88;;
45408;SDS011;31162;51.076;3.784;2023-04-01T18:58:14;24.70;;;13.65;;
45408;SDS011;31162;51.076;3.784;2023-04-01T19:03:43;25.40;;;12.45;;
45408;SDS011;31162;51.076;3.784;2023-04-01T19:06:25;26.20;;;11.60;;
45408;SDS011;31162;51.076;3.784;2023-04-01T19:09:15;23.17;;;12.93;;
45408;SDS011;31162;51.076;3.784;2023-04-01T19:20:39;24.00;;;10.35;;
45408;SDS011;31162;51.076;3.784;2023-04-01T19:34:44;24.00;;;10.60;;
45408;SDS011;31162;51.076;3.784;2023-04-01T19:36:58;26.55;;;10.32;;
45408;SDS011;31162;51.076;3.784;2023-04-01T19:39:34;20.00;;;10.23;;
45408;SDS011;31162;51.076;3.784;2023-04-01T19:42:32;25.40;;;10.05;;
45408;SDS011;31162;51.076;3.784;2023-04-01T19:47:54;26.10;;;10.55;;
45408;SDS011;31162;51.076;3.784;2023-04-01T19:56:17;25.33;;;9.82;;
45408;SDS011;31162;51.076;3.784;2023-04-01T19:59:10;21.10;;;10.88;;
45408;SDS011;31162;51.076;3.784;2023-04-01T20:04:47;28.77;;;10.45;;
45408;SDS011;31162;51.076;3.784;2023-04-01T20:07:19;22.48;;;10.93;;
45408;SDS011;31162;51.076;3.784;2023-04-01T20:10:22;27.05;;;11.23;;
45408;SDS011;31162;51.076;3.784;2023-04-01T20:13:00;21.80;;;10.20;;
45408;SDS011;31162;51.076;3.784;2023-04-01T20:18:19;30.65;;;11.52;;
45408;SDS011;31162;51.076;3.784;2023-04-01T20:23:54;28.67;;;13.07;;
45408;SDS011;31162;51.076;3.784;2023-04-01T20:26:32;21.93;;;12.30;;
45408;SDS011;31162;51.076;3.784;2023-04-01T20:29:15;26.30;;;14.00;;
45408;SDS011;31162;51.076;3.784;2023-04-01T20:34:41;34.30;;;15.55;;
45408;SDS011;31162;51.076;3.784;2023-04-01T20:51:05;29.77;;;17.52;;
45408;SDS011;31162;51.076;3.784;2023-04-01T20:53:41;37.58;;;16.98;;
45408;SDS011;31162;51.076;3.784;2023-04-01T21:01:25;38.45;;;18.58;;
45408;SDS011;31162;51.076;3.784;2023-04-01T21:09:41;44.95;;;20.77;;
45408;SDS011;31162;51.076;3.784;2023-04-01T21:24:35;40.88;;;20.88;;
45408;SDS011;31162;51.076;3.784;2023-04-01T22:03:00;43.22;;;21.88;;
45408;SDS011;31162;51.076;3.784;2023-04-01T22:14:13;40.42;;;21.60;;
45408;SDS011;31162;51.076;3.784;2023-04-01T22:20:16;39.90;;;20.92;;
45408;SDS011;31162;51.076;3.784;2023-04-01T22:28:12;40.25;;;23.05;;
45408;SDS011;31162;51.076;3.784;2023-04-01T22:30:51;47.30;;;23.25;;
45408;SDS011;31162;51.076;3.784;2023-04-01T22:43:46;40.05;;;23.45;;
45408;SDS011;31162;51.076;3.784;2023-04-01T22:48:49;39.47;;;23.45;;
45408;SDS011;31162;51.076;3.784;2023-04-01T22:57:01;32.85;;;22.00;;
45408;SDS011;31162;51.076;3.784;2023-04-01T23:02:17;37.72;;;23.90;;
45408;SDS011;31162;51.076;3.784;2023-04-01T23:04:48;35.78;;;25.02;;
45408;SDS011;31162;51.076;3.784;2023-04-01T23:13:04;36.95;;;26.27;;
45408;SDS011;31162;51.076;3.784;2023-04-01T23:15:41;34.90;;;25.83;;
45408;SDS011;31162;51.076;3.784;2023-04-01T23:18:17;35.97;;;27.50;;
45408;SDS011;31162;51.076;3.784;2023-04-01T23:21:03;33.22;;;25.63;;
45408;SDS011;31162;51.076;3.784;2023-04-01T23:26:46;42.08;;;28.30;;
45408;SDS011;31162;51.076;3.784;2023-04-01T23:29:22;40.13;;;29.20;;
45408;SDS011;31162;51.076;3.784;2023-04-01T23:32:32;43.20;;;29.45;;
45408;SDS011;31162;51.076;3.784;2023-04-01T23:34:45;42.47;;;29.10;;
45408;SDS011;31162;51.076;3.784;2023-04-01T23:37:16;42.15;;;30.42;;
45408;SDS011;31162;51.076;3.784;2023-04-01T23:39:57;43.40;;;30.52;;
45408;SDS011;31162;51.076;3.784;2023-04-01T23:42:24;47.30;;;31.52;;
45408;SDS011;31162;51.076;3.784;2023-04-01T23:45:05;45.85;;;31.58;;
45408;SDS011;31162;51.076;3.784;2023-04-01T23:47:39;40.72;;;31.75;;
45408;SDS011;31162;51.076;3.784;2023-04-01T23:50:13;42.15;;;32.55;;
45408;SDS011;31162;51.076;3.784;2023-04-01T23:52:49;40.50;;;31.65;;
45408;SDS011;31162;51.076;3.784;2023-04-01T23:55:25;41.13;;;33.17;;
